Hauptseite
METAR-TAF:

METAR-TAF

Flughäfen :

Liverpool John Lennon Airport

Liverpool, England

Breite: 53-20N, Länge: 002-51W, Höhe: 26 m

Beobachtung

Neuester Wetterbericht von vor 17 Minuten, um 07:50 UTC
Windstille
Temperatur 7°C
Luftfeuchtigkeit 87%
Luftdruck 1029 hPa
Sichtweite 10 km oder mehr
keine Wolken unter 1500 m und keine Kumulonimbus oder Gewitterwolken

METAR: EGGP 180750Z 00000KT CAVOK 07/05 Q1029

Zeit: 09:07 (08:07 UTC)

Prognose

Neuester Wetterbericht von vor 3 Stunden und 10 Minuten, um 04:57 UTC
Gültige Prognose vom 18 um 06 UTC bis 19 um 06 UTC
Wind 5 kt aus Nord
Sichtweite 10 km oder mehr
Leicht bewölkt in der Höhe von 4000 ft
Wahrscheinlichkeit 30%
vom 18 um 06 UTC bis 18 um 10 UTC
Sichtweite: 6000 m

TAF: EGGP 180457Z 1806/1906 35005KT 9999 FEW040 PROB30 1806/1810 6000

Wetterbeobachtungen und Prognosen von mehr als 4000 Flughäfen (METAR und TAF Bericht).

Die verfügbaren Stationen werden durch gelbe und rote Markierungen auf der Karte dargestellt.

Führen Sie die Maus auf sie, um den Namen der Station zu sehen.

Darauf klicken, um die Beobachtung von Wetterbeobachtungen und Prognosen zu sehen.

Um die Karte zu ändern : klicken Sie auf den grünen Tasten mit einem schwarzen Kreuz Zum Vergrößern, auf den grünen Button mit einem Gedankenstrich zu verkleinern, oder auf die grünen Pfeile für benachbarte Karten.


METAR-TAF: